createdAt,value
2023-11-18T00:00:14.725Z,34.50
2023-11-18T00:02:44.194Z,34.42
2023-11-18T00:05:14.877Z,32.38
2023-11-18T00:07:43.174Z,33.85
2023-11-18T00:10:11.809Z,32.80
2023-11-18T00:12:42.436Z,34.28
2023-11-18T00:15:11.779Z,32.92
2023-11-18T00:17:39.829Z,34.47
2023-11-18T00:20:11.068Z,35.13
2023-11-18T00:22:41.005Z,34.72
2023-11-18T00:25:10.031Z,35.95
2023-11-18T00:27:38.229Z,33.40
2023-11-18T00:30:07.723Z,34.35
2023-11-18T00:32:36.452Z,30.60
2023-11-18T00:35:05.791Z,33.53
2023-11-18T00:37:33.803Z,32.83
2023-11-18T00:40:04.450Z,32.40
2023-11-18T00:42:32.334Z,32.15
2023-11-18T00:45:00.167Z,31.10
2023-11-18T00:47:29.678Z,31.88
2023-11-18T00:49:58.906Z,32.70
2023-11-18T00:52:26.894Z,36.38
2023-11-18T00:54:54.859Z,35.22
2023-11-18T00:57:24.085Z,33.17
2023-11-18T00:59:52.178Z,32.97
2023-11-18T01:02:20.214Z,34.90
2023-11-18T01:04:48.236Z,37.05
2023-11-18T01:07:17.093Z,32.58
2023-11-18T01:09:45.140Z,34.40
2023-11-18T01:12:13.362Z,36.28
2023-11-18T01:14:43.163Z,37.13
2023-11-18T01:17:11.315Z,37.85
2023-11-18T01:19:40.116Z,39.22
2023-11-18T01:22:08.083Z,33.63
2023-11-18T01:24:36.325Z,35.42
2023-11-18T01:27:04.546Z,35.20
2023-11-18T01:29:34.136Z,35.20
2023-11-18T01:32:09.882Z,34.08
2023-11-18T01:34:39.525Z,34.60
2023-11-18T01:37:08.515Z,34.88
2023-11-18T01:39:36.986Z,34.67
2023-11-18T01:42:05.313Z,36.72
2023-11-18T01:44:35.021Z,34.70
2023-11-18T01:47:07.135Z,35.40
2023-11-18T01:49:38.218Z,35.33
2023-11-18T01:52:08.872Z,36.53
2023-11-18T01:54:39.076Z,36.90
2023-11-18T01:57:10.510Z,35.40
2023-11-18T01:59:39.517Z,37.97
2023-11-18T02:02:08.828Z,38.75
2023-11-18T02:04:36.936Z,38.58
2023-11-18T02:07:10.577Z,39.35
2023-11-18T02:09:38.757Z,36.85
2023-11-18T02:12:13.164Z,39.30
2023-11-18T02:14:42.296Z,39.30
2023-11-18T02:17:12.786Z,40.17
2023-11-18T02:19:41.472Z,41.03
2023-11-18T02:22:11.231Z,43.08
2023-11-18T02:24:42.189Z,40.03
2023-11-18T02:27:13.033Z,41.95
2023-11-18T02:29:43.464Z,38.40
2023-11-18T02:32:17.069Z,40.20
2023-11-18T02:34:52.692Z,44.35
2023-11-18T02:37:20.643Z,43.35
2023-11-18T02:39:52.532Z,38.65
2023-11-18T02:42:24.052Z,41.13
2023-11-18T02:45:00.070Z,41.45
2023-11-18T02:47:31.425Z,42.70
2023-11-18T02:50:06.784Z,42.03
2023-11-18T02:52:35.620Z,43.05
2023-11-18T02:55:04.192Z,40.75
2023-11-18T02:57:34.070Z,38.92
2023-11-18T03:00:02.346Z,41.83
2023-11-18T03:02:32.405Z,41.15
2023-11-18T03:05:00.802Z,41.08
2023-11-18T03:07:29.229Z,42.60
2023-11-18T03:09:58.296Z,41.08
2023-11-18T03:12:29.235Z,43.22
2023-11-18T03:14:59.066Z,40.17
2023-11-18T03:17:27.077Z,45.47
2023-11-18T03:19:55.446Z,43.58
2023-11-18T03:22:24.239Z,44.42
2023-11-18T03:24:52.249Z,43.55
2023-11-18T03:27:20.642Z,44.63
2023-11-18T03:29:50.069Z,45.45
2023-11-18T03:32:20.653Z,49.83
2023-11-18T03:34:48.533Z,45.78
2023-11-18T03:37:16.341Z,45.83
2023-11-18T03:39:44.510Z,46.97
2023-11-18T03:42:12.385Z,45.40
2023-11-18T03:44:41.463Z,45.33
2023-11-18T03:47:09.559Z,42.53
2023-11-18T03:49:38.895Z,46.60
2023-11-18T03:52:07.125Z,44.85
2023-11-18T03:54:35.185Z,46.03
2023-11-18T03:57:03.117Z,45.60
2023-11-18T03:59:31.065Z,52.05
2023-11-18T04:01:59.341Z,44.97
2023-11-18T04:04:27.397Z,48.20
2023-11-18T04:06:57.768Z,49.50
2023-11-18T04:09:26.677Z,50.65
2023-11-18T04:11:54.874Z,50.95
2023-11-18T04:14:22.967Z,52.03
2023-11-18T04:16:51.173Z,55.58
2023-11-18T04:19:19.317Z,53.28
2023-11-18T04:21:50.374Z,55.85
2023-11-18T04:24:19.609Z,54.05
2023-11-18T04:26:49.193Z,52.60
2023-11-18T04:29:17.287Z,47.55
2023-11-18T04:31:45.375Z,53.22
2023-11-18T04:34:13.317Z,48.72
2023-11-18T04:36:43.422Z,50.03
2023-11-18T04:39:13.070Z,49.60
2023-11-18T04:41:42.440Z,49.38
2023-11-18T04:44:10.311Z,47.13
2023-11-18T04:46:38.370Z,49.35
2023-11-18T04:49:07.087Z,47.40
2023-11-18T04:51:35.463Z,46.45
2023-11-18T04:54:04.572Z,43.47
2023-11-18T04:56:32.312Z,45.35
2023-11-18T04:59:01.779Z,45.28
2023-11-18T05:01:29.781Z,40.08
2023-11-18T05:03:57.897Z,42.95
2023-11-18T05:06:25.729Z,41.78
2023-11-18T05:08:53.810Z,45.35
2023-11-18T05:11:22.014Z,42.17
2023-11-18T05:13:50.548Z,44.42
2023-11-18T05:16:20.156Z,43.10
2023-11-18T05:18:48.131Z,41.85
2023-11-18T05:21:16.118Z,41.88
2023-11-18T05:23:43.971Z,42.45
2023-11-18T05:26:11.906Z,41.63
2023-11-18T05:28:39.977Z,38.25
2023-11-18T05:31:09.663Z,35.95
2023-11-18T05:33:39.061Z,36.35
2023-11-18T05:36:08.429Z,36.72
2023-11-18T05:38:37.114Z,34.35
2023-11-18T05:41:07.725Z,34.90
2023-11-18T05:43:41.213Z,35.45
2023-11-18T05:46:21.449Z,36.97
2023-11-18T05:48:51.671Z,34.75
2023-11-18T05:51:22.769Z,33.25
2023-11-18T05:53:52.151Z,37.92
2023-11-18T05:56:20.904Z,35.55
2023-11-18T05:58:48.816Z,34.40
2023-11-18T06:01:18.282Z,36.58
2023-11-18T06:03:47.275Z,35.78
2023-11-18T06:06:22.171Z,35.10
2023-11-18T06:08:53.327Z,39.08
2023-11-18T06:11:22.013Z,39.85
2023-11-18T06:13:51.674Z,33.75
2023-11-18T06:16:22.598Z,32.90
2023-11-18T06:18:52.914Z,34.55
2023-11-18T06:21:25.914Z,34.10
2023-11-18T06:23:56.055Z,33.30
2023-11-18T06:26:25.638Z,31.80
2023-11-18T06:28:53.634Z,33.70
2023-11-18T06:31:21.944Z,31.20
2023-11-18T06:33:50.347Z,33.25
2023-11-18T06:36:23.600Z,35.35
2023-11-18T06:38:52.990Z,34.22
2023-11-18T06:41:24.704Z,35.80
2023-11-18T06:44:02.316Z,31.08
2023-11-18T06:46:32.831Z,31.63
2023-11-18T06:49:05.015Z,31.25
2023-11-18T06:51:37.153Z,31.75
2023-11-18T06:54:10.466Z,35.08
2023-11-18T06:56:40.032Z,32.55
2023-11-18T06:59:09.017Z,31.63
2023-11-18T07:01:37.549Z,35.63
2023-11-18T07:04:09.766Z,31.98
2023-11-18T07:06:40.233Z,30.60
2023-11-18T07:09:14.339Z,27.95
2023-11-18T07:14:11.305Z,30.23
2023-11-18T07:16:40.709Z,30.15
2023-11-18T07:19:08.929Z,33.90
2023-11-18T07:21:36.988Z,30.25
2023-11-18T07:24:08.036Z,27.58
2023-11-18T07:26:36.344Z,27.60
2023-11-18T07:29:04.514Z,27.65
2023-11-18T07:31:32.462Z,24.83
2023-11-18T07:34:00.729Z,24.98
2023-11-18T07:36:28.577Z,25.02
2023-11-18T07:38:57.494Z,22.73
2023-11-18T07:41:30.196Z,23.40
2023-11-18T07:44:00.298Z,23.13
2023-11-18T07:46:30.029Z,24.48
2023-11-18T07:48:58.038Z,24.60
2023-11-18T07:51:26.269Z,27.65
2023-11-18T07:53:55.307Z,23.52
2023-11-18T07:56:24.416Z,28.40
2023-11-18T07:58:55.666Z,24.05
2023-11-18T08:01:23.646Z,23.88
2023-11-18T08:03:52.767Z,27.45
2023-11-18T08:06:20.820Z,24.50
2023-11-18T08:08:49.654Z,25.92
2023-11-18T08:11:18.354Z,24.15
2023-11-18T08:13:46.384Z,26.80
2023-11-18T08:16:16.033Z,24.98
2023-11-18T08:18:44.140Z,25.13
2023-11-18T08:21:13.630Z,23.23
2023-11-18T08:23:42.895Z,23.75
2023-11-18T08:26:10.803Z,24.05
2023-11-18T08:28:39.222Z,23.92
2023-11-18T08:31:07.775Z,26.67
2023-11-18T08:33:37.132Z,23.20
2023-11-18T08:36:05.716Z,25.92
2023-11-18T08:38:33.607Z,27.70
2023-11-18T08:41:01.682Z,23.33
2023-11-18T08:43:29.998Z,22.15
2023-11-18T08:45:58.211Z,20.02
2023-11-18T08:48:26.138Z,21.10
2023-11-18T08:50:55.566Z,23.30
2023-11-18T08:53:27.587Z,22.88
2023-11-18T08:55:56.500Z,20.40
2023-11-18T08:58:29.778Z,18.42
2023-11-18T09:01:06.989Z,19.80
2023-11-18T09:03:44.235Z,20.10
2023-11-18T09:06:19.976Z,19.48
2023-11-18T09:08:54.454Z,17.48
2023-11-18T09:11:24.592Z,17.42
2023-11-18T09:13:55.414Z,19.65
2023-11-18T09:16:30.592Z,16.75
2023-11-18T09:19:00.915Z,18.50
2023-11-18T09:21:34.041Z,19.58
2023-11-18T09:24:03.665Z,16.15
2023-11-18T09:26:31.853Z,17.65
2023-11-18T09:29:02.897Z,17.33
2023-11-18T09:31:32.974Z,16.25
2023-11-18T09:34:01.136Z,18.60
2023-11-18T09:36:30.816Z,18.77
2023-11-18T09:38:58.804Z,16.88
2023-11-18T09:41:28.936Z,16.73
2023-11-18T09:44:00.008Z,16.17
2023-11-18T09:46:33.804Z,16.77
2023-11-18T09:51:48.578Z,17.20
2023-11-18T09:54:22.717Z,17.83
2023-11-18T09:56:59.160Z,18.55
2023-11-18T09:59:35.469Z,17.73
2023-11-18T10:02:06.077Z,19.45
2023-11-18T10:04:34.776Z,15.23
2023-11-18T10:07:05.518Z,16.55
2023-11-18T10:09:38.401Z,14.90
2023-11-18T10:12:07.355Z,14.85
2023-11-18T10:14:36.014Z,14.98
2023-11-18T10:17:08.011Z,16.20
2023-11-18T10:20:01.577Z,15.73
2023-11-18T10:22:33.869Z,13.43
2023-11-18T10:25:07.120Z,21.27
2023-11-18T10:27:36.416Z,13.73
2023-11-18T10:30:20.501Z,21.30
2023-11-18T10:33:06.461Z,17.48
2023-11-18T10:35:35.258Z,17.73
2023-11-18T10:38:07.033Z,13.80
2023-11-18T10:40:37.688Z,16.67
2023-11-18T10:43:10.597Z,15.45
2023-11-18T10:45:42.316Z,14.85
2023-11-18T10:48:23.089Z,15.57
2023-11-18T10:50:52.164Z,13.23
2023-11-18T10:53:22.887Z,11.70
2023-11-18T10:55:52.050Z,11.93
2023-11-18T10:58:20.780Z,16.88
2023-11-18T11:00:54.741Z,11.63
2023-11-18T11:03:25.091Z,11.25
2023-11-18T11:05:55.671Z,13.40
2023-11-18T11:08:35.958Z,15.18
2023-11-18T11:11:17.477Z,12.98
2023-11-18T11:13:46.261Z,14.60
2023-11-18T11:16:15.121Z,15.40
2023-11-18T11:18:46.693Z,14.30
2023-11-18T11:21:18.018Z,12.35
2023-11-18T11:23:56.869Z,15.77
2023-11-18T11:26:43.772Z,12.60
2023-11-18T11:29:21.518Z,13.18
2023-11-18T11:32:04.439Z,11.45
2023-11-18T11:34:32.826Z,12.30
2023-11-18T11:37:02.641Z,12.35
2023-11-18T11:39:33.839Z,13.23
2023-11-18T11:42:02.184Z,13.82
2023-11-18T11:44:32.171Z,15.43
2023-11-18T11:47:02.947Z,14.82
2023-11-18T11:49:38.164Z,14.45
2023-11-18T11:52:11.829Z,16.30
2023-11-18T11:54:46.178Z,14.57
2023-11-18T11:57:16.954Z,13.10
2023-11-18T11:59:58.319Z,15.30
2023-11-18T12:02:30.801Z,15.80
2023-11-18T12:05:00.714Z,13.25
2023-11-18T12:07:29.346Z,13.23
2023-11-18T12:10:00.086Z,13.52
2023-11-18T12:12:29.140Z,11.50
2023-11-18T12:14:59.048Z,11.98
2023-11-18T12:17:33.462Z,11.30
2023-11-18T12:20:07.696Z,12.75
2023-11-18T12:23:06.756Z,12.15
2023-11-18T12:25:36.633Z,14.07
2023-11-18T12:28:11.834Z,12.65
2023-11-18T12:30:57.443Z,13.15
2023-11-18T12:33:27.848Z,9.90
2023-11-18T12:36:34.324Z,11.48
2023-11-18T12:39:34.663Z,9.65
2023-11-18T12:42:13.219Z,14.25
2023-11-18T12:45:00.040Z,9.15
2023-11-18T12:47:30.048Z,10.23
2023-11-18T12:49:58.431Z,8.45
2023-11-18T12:52:28.978Z,9.43
2023-11-18T12:55:00.062Z,9.60
2023-11-18T12:57:33.151Z,10.20
2023-11-18T13:00:02.366Z,8.73
2023-11-18T13:02:33.770Z,11.43
2023-11-18T13:05:01.931Z,8.18
2023-11-18T13:07:30.925Z,10.73
2023-11-18T13:10:01.269Z,7.22
2023-11-18T13:12:30.813Z,5.50
2023-11-18T13:14:59.018Z,7.15
2023-11-18T13:17:29.375Z,6.93
2023-11-18T13:19:59.283Z,7.88
2023-11-18T13:22:39.016Z,8.40
2023-11-18T13:25:15.515Z,11.15
2023-11-18T13:27:44.923Z,8.25
2023-11-18T13:30:14.798Z,9.13
2023-11-18T13:32:43.622Z,10.20
2023-11-18T13:35:14.766Z,6.68
2023-11-18T13:37:43.314Z,5.43
2023-11-18T13:40:13.095Z,9.27
2023-11-18T13:42:43.417Z,7.03
2023-11-18T13:45:30.225Z,5.93
2023-11-18T13:48:03.299Z,5.00
2023-11-18T13:50:31.482Z,6.03
2023-11-18T13:52:59.964Z,6.63
2023-11-18T13:55:33.295Z,5.28
2023-11-18T13:58:01.678Z,4.70
2023-11-18T14:00:32.693Z,6.75
2023-11-18T14:03:02.814Z,5.00
2023-11-18T14:05:30.858Z,4.13
2023-11-18T14:08:01.505Z,4.93
2023-11-18T14:10:29.690Z,5.20
2023-11-18T14:13:02.403Z,5.03
2023-11-18T14:15:32.433Z,4.18
2023-11-18T14:18:00.380Z,5.55
2023-11-18T14:20:28.791Z,4.25
2023-11-18T14:22:56.732Z,5.38
2023-11-18T14:25:25.830Z,3.55
2023-11-18T14:27:54.534Z,3.63
2023-11-18T14:30:25.540Z,2.83
2023-11-18T14:32:54.974Z,4.35
2023-11-18T14:35:25.451Z,3.75
2023-11-18T14:37:54.552Z,4.80
2023-11-18T14:40:25.070Z,3.70
2023-11-18T14:42:53.475Z,3.08
2023-11-18T14:45:21.571Z,4.60
2023-11-18T14:47:50.200Z,5.38
2023-11-18T14:50:24.909Z,3.65
2023-11-18T14:52:59.901Z,3.60
2023-11-18T14:55:28.451Z,2.88
2023-11-18T14:57:57.352Z,2.55
2023-11-18T15:00:27.792Z,2.58
2023-11-18T15:03:00.020Z,3.08
2023-11-18T15:05:30.298Z,2.13
2023-11-18T15:07:59.498Z,1.95
2023-11-18T15:10:29.030Z,3.55
2023-11-18T15:12:59.751Z,3.97
2023-11-18T15:15:34.007Z,4.18
2023-11-18T15:18:06.668Z,2.63
2023-11-18T15:20:36.624Z,4.03
2023-11-18T15:23:05.860Z,3.30
2023-11-18T15:25:35.456Z,2.38
2023-11-18T15:28:04.834Z,2.53
2023-11-18T15:30:33.925Z,2.20
2023-11-18T15:33:02.644Z,2.20
2023-11-18T15:35:32.042Z,3.42
2023-11-18T15:38:01.400Z,2.50
2023-11-18T15:40:29.531Z,2.78
2023-11-18T15:42:57.455Z,2.80
2023-11-18T15:45:27.743Z,2.60
2023-11-18T15:47:56.465Z,2.95
2023-11-18T15:50:24.535Z,2.67
2023-11-18T15:52:54.013Z,3.17
2023-11-18T15:55:25.498Z,2.50
2023-11-18T15:57:54.992Z,2.30
2023-11-18T16:00:25.822Z,2.65
2023-11-18T16:02:58.428Z,4.38
2023-11-18T16:05:35.304Z,2.45
2023-11-18T16:08:05.539Z,3.95
2023-11-18T16:10:35.292Z,33.17
2023-11-18T16:13:03.821Z,6.85
2023-11-18T16:15:33.134Z,3.38
2023-11-18T16:18:02.037Z,2.60
2023-11-18T16:20:33.345Z,3.40
2023-11-18T16:23:03.923Z,2.75
2023-11-18T16:25:32.406Z,2.80
2023-11-18T16:28:03.606Z,3.65
2023-11-18T16:30:32.265Z,2.78
2023-11-18T16:33:02.291Z,4.55
2023-11-18T16:35:31.085Z,2.33
2023-11-18T16:38:01.885Z,2.38
2023-11-18T16:40:30.812Z,2.55
2023-11-18T16:43:01.207Z,2.20
2023-11-18T16:45:30.680Z,3.05
2023-11-18T16:47:59.637Z,2.30
2023-11-18T16:50:28.573Z,2.78
2023-11-18T16:52:57.389Z,3.03
2023-11-18T16:55:26.897Z,2.30
2023-11-18T16:57:55.551Z,1.92
2023-11-18T17:00:24.929Z,3.83
2023-11-18T17:02:58.531Z,3.08
2023-11-18T17:05:29.118Z,3.45
2023-11-18T17:07:57.464Z,3.00
2023-11-18T17:10:25.585Z,2.03
2023-11-18T17:12:53.670Z,2.20
2023-11-18T17:15:21.600Z,2.00
2023-11-18T17:17:54.726Z,1.80
2023-11-18T17:20:24.662Z,3.15
2023-11-18T17:22:53.032Z,2.03
2023-11-18T17:25:24.681Z,3.65
2023-11-18T17:27:54.434Z,3.80
2023-11-18T17:30:22.814Z,2.60
2023-11-18T17:32:53.142Z,2.83
2023-11-18T17:35:22.247Z,2.28
2023-11-18T17:37:52.023Z,1.70
2023-11-18T17:40:22.870Z,2.10
2023-11-18T17:42:54.348Z,3.47
2023-11-18T17:45:25.187Z,3.25
2023-11-18T17:47:53.404Z,2.10
2023-11-18T17:50:21.715Z,2.03
2023-11-18T17:52:52.425Z,2.60
2023-11-18T17:55:20.799Z,2.40
2023-11-18T17:57:48.735Z,2.90
2023-11-18T18:00:23.733Z,2.40
2023-11-18T18:02:53.821Z,2.42
2023-11-18T18:05:22.633Z,3.30
2023-11-18T18:07:53.032Z,2.35
2023-11-18T18:10:22.995Z,2.83
2023-11-18T18:12:52.167Z,3.13
2023-11-18T18:15:20.248Z,3.17
2023-11-18T18:17:48.658Z,4.47
2023-11-18T18:20:21.010Z,3.97
2023-11-18T18:22:51.360Z,2.88
2023-11-18T18:25:19.543Z,4.00
2023-11-18T18:27:47.770Z,4.30
2023-11-18T18:30:17.551Z,4.88
2023-11-18T18:32:47.941Z,3.92
2023-11-18T18:35:17.545Z,3.83
2023-11-18T18:37:45.651Z,3.17
2023-11-18T18:40:15.768Z,3.28
2023-11-18T18:42:43.858Z,3.50
2023-11-18T18:45:13.813Z,3.92
2023-11-18T18:47:41.774Z,4.50
2023-11-18T18:50:11.688Z,5.53
2023-11-18T18:52:39.584Z,5.95
2023-11-18T18:55:08.958Z,5.50
2023-11-18T18:57:38.513Z,5.00
2023-11-18T19:00:13.154Z,5.03
2023-11-18T19:02:41.522Z,4.40
2023-11-18T19:05:10.496Z,4.85
2023-11-18T19:07:38.581Z,4.90
2023-11-18T19:10:09.261Z,6.03
2023-11-18T19:12:38.516Z,5.88
2023-11-18T19:15:07.205Z,5.75
2023-11-18T19:17:36.704Z,6.03
2023-11-18T19:20:07.606Z,5.50
2023-11-18T19:22:35.833Z,6.50
2023-11-18T19:25:03.883Z,5.90
2023-11-18T19:27:32.076Z,6.78
2023-11-18T19:30:01.293Z,7.00
2023-11-18T19:32:29.355Z,7.05
2023-11-18T19:34:57.287Z,7.15
2023-11-18T19:37:25.361Z,7.43
2023-11-18T19:39:53.274Z,7.07
2023-11-18T19:42:23.276Z,6.95
2023-11-18T19:44:51.389Z,7.22
2023-11-18T19:47:20.972Z,7.78
2023-11-18T19:49:49.201Z,7.80
2023-11-18T19:52:17.259Z,7.63
2023-11-18T19:54:46.203Z,7.85
2023-11-18T19:57:14.166Z,7.65
2023-11-18T19:59:42.300Z,7.55
2023-11-18T20:02:11.258Z,9.77
2023-11-18T20:04:43.102Z,8.77
2023-11-18T20:07:12.448Z,8.45
2023-11-18T20:09:40.781Z,8.05
2023-11-18T20:12:09.663Z,8.07
2023-11-18T20:14:38.271Z,9.13
2023-11-18T20:17:07.591Z,8.38
2023-11-18T20:19:36.829Z,8.35
2023-11-18T20:22:06.364Z,8.60
2023-11-18T20:24:35.787Z,8.60
2023-11-18T20:27:03.924Z,8.55
2023-11-18T20:29:32.025Z,8.55
2023-11-18T20:32:02.727Z,8.43
2023-11-18T20:34:31.702Z,7.72
2023-11-18T20:36:59.907Z,8.02
2023-11-18T20:39:29.556Z,9.10
2023-11-18T20:41:57.558Z,9.20
2023-11-18T20:44:25.637Z,8.55
2023-11-18T20:46:54.132Z,10.13
2023-11-18T20:49:22.151Z,9.38
2023-11-18T20:51:50.865Z,9.20
2023-11-18T20:54:19.025Z,21.52
2023-11-18T20:56:48.453Z,15.57
2023-11-18T20:59:19.609Z,10.30
2023-11-18T21:01:47.995Z,9.82
2023-11-18T21:04:16.995Z,9.45
2023-11-18T21:06:45.094Z,9.52
2023-11-18T21:09:12.069Z,10.15
2023-11-18T21:11:40.013Z,10.40
2023-11-18T21:14:09.357Z,11.60
2023-11-18T21:16:37.386Z,12.13
2023-11-18T21:19:07.729Z,11.60
2023-11-18T21:21:35.808Z,12.82
2023-11-18T21:24:07.304Z,11.65
2023-11-18T21:26:35.317Z,11.90
2023-11-18T21:29:03.272Z,12.07
2023-11-18T21:31:32.899Z,13.48
2023-11-18T21:34:05.610Z,13.13
2023-11-18T21:36:33.632Z,15.23
2023-11-18T21:39:01.485Z,14.13
2023-11-18T21:41:29.454Z,12.02
2023-11-18T21:43:59.264Z,12.15
2023-11-18T21:46:28.468Z,12.10
2023-11-18T21:48:57.766Z,12.25
2023-11-18T21:51:25.700Z,12.18
2023-11-18T21:53:53.835Z,11.40
2023-11-18T21:56:22.801Z,11.45
2023-11-18T21:58:50.720Z,12.25
2023-11-18T22:01:18.618Z,13.32
2023-11-18T22:03:46.782Z,12.90
2023-11-18T22:06:16.498Z,14.90
2023-11-18T22:08:44.340Z,16.88
2023-11-18T22:11:12.490Z,16.92
2023-11-18T22:13:40.421Z,16.52
2023-11-18T22:16:09.538Z,14.02
2023-11-18T22:18:37.734Z,14.77
2023-11-18T22:21:07.803Z,14.02
2023-11-18T22:23:38.736Z,14.25
2023-11-18T22:26:08.562Z,14.63
2023-11-18T22:28:39.152Z,15.15
2023-11-18T22:31:08.011Z,15.82
2023-11-18T22:33:37.104Z,14.65
2023-11-18T22:36:08.270Z,14.70
2023-11-18T22:38:39.214Z,14.52
2023-11-18T22:41:10.566Z,21.13
2023-11-18T22:43:38.463Z,22.17
2023-11-18T22:46:07.187Z,17.85
2023-11-18T22:48:35.183Z,14.48
2023-11-18T22:51:04.539Z,14.82
2023-11-18T22:53:32.474Z,14.15
2023-11-18T22:56:01.888Z,13.55
2023-11-18T22:58:29.871Z,14.43
2023-11-18T23:00:58.118Z,13.48
2023-11-18T23:03:27.484Z,13.50
2023-11-18T23:05:55.521Z,12.20
2023-11-18T23:08:23.853Z,13.82
2023-11-18T23:10:52.416Z,17.35
2023-11-18T23:13:24.100Z,13.52
2023-11-18T23:15:56.891Z,11.90
2023-11-18T23:18:24.956Z,10.48
2023-11-18T23:20:53.172Z,11.52
2023-11-18T23:23:21.639Z,12.32
2023-11-18T23:25:49.852Z,12.13
2023-11-18T23:28:18.083Z,13.65
2023-11-18T23:30:47.627Z,10.90
2023-11-18T23:33:19.527Z,9.90
2023-11-18T23:35:47.452Z,13.80
2023-11-18T23:38:15.792Z,10.50
2023-11-18T23:40:43.715Z,12.65
2023-11-18T23:43:11.821Z,9.02
2023-11-18T23:45:40.077Z,12.30
2023-11-18T23:48:11.210Z,12.18
2023-11-18T23:50:39.294Z,9.38
2023-11-18T23:53:08.083Z,12.63
2023-11-18T23:55:36.340Z,9.43
2023-11-18T23:58:04.496Z,9.27
